createdAt,value
2023-08-24T00:00:59.744Z,101900.44
2023-08-24T00:04:03.496Z,101902.53
2023-08-24T00:07:07.394Z,101906.09
2023-08-24T00:10:11.821Z,101894.56
2023-08-24T00:13:15.628Z,101894.50
2023-08-24T00:16:21.692Z,101897.84
2023-08-24T00:19:25.740Z,101899.78
2023-08-24T00:22:29.387Z,101896.34
2023-08-24T00:25:33.661Z,101895.50
2023-08-24T00:28:37.298Z,101883.03
2023-08-24T00:31:42.445Z,101888.34
2023-08-24T00:34:46.165Z,101892.44
2023-08-24T00:37:49.975Z,101894.31
2023-08-24T00:40:54.959Z,101893.00
2023-08-24T00:43:58.905Z,101897.69
2023-08-24T00:47:04.034Z,101893.22
2023-08-24T00:50:09.613Z,101897.16
2023-08-24T00:53:14.024Z,101890.13
2023-08-24T00:56:18.245Z,101890.91
2023-08-24T00:59:22.230Z,101897.09
2023-08-24T01:02:27.975Z,101894.44
2023-08-24T01:05:31.976Z,101895.75
2023-08-24T01:08:35.823Z,101897.91
2023-08-24T01:11:55.680Z,101898.25
2023-08-24T01:15:09.450Z,101901.25
2023-08-24T01:18:21.472Z,101894.34
2023-08-24T01:21:27.237Z,101896.13
2023-08-24T01:24:40.789Z,101905.66
2023-08-24T01:27:48.370Z,101908.97
2023-08-24T01:30:52.503Z,101900.19
2023-08-24T01:33:56.252Z,101895.72
2023-08-24T01:36:59.870Z,101898.25
2023-08-24T01:40:13.289Z,101888.47
2023-08-24T01:43:36.828Z,101891.28
2023-08-24T01:46:49.652Z,101894.91
2023-08-24T01:49:53.916Z,101898.66
2023-08-24T01:52:57.989Z,101889.97
2023-08-24T01:56:01.750Z,101894.53
2023-08-24T01:59:06.843Z,101890.34
2023-08-24T02:02:10.486Z,101884.41
2023-08-24T02:05:14.173Z,101888.84
2023-08-24T02:08:17.846Z,101875.66
2023-08-24T02:11:21.601Z,101877.31
2023-08-24T02:14:26.603Z,101872.28
2023-08-24T02:17:30.288Z,101869.72
2023-08-24T02:20:37.833Z,101868.06
2023-08-24T02:23:41.823Z,101869.97
2023-08-24T02:26:45.413Z,101866.59
2023-08-24T02:29:50.448Z,101856.78
2023-08-24T02:32:54.221Z,101867.53
2023-08-24T02:35:58.153Z,101860.88
2023-08-24T02:39:02.087Z,101865.63
2023-08-24T02:42:06.028Z,101856.88
2023-08-24T02:45:26.972Z,101861.50
2023-08-24T02:48:30.819Z,101855.25
2023-08-24T02:51:34.462Z,101855.34
2023-08-24T02:54:38.053Z,101859.91
2023-08-24T02:57:41.666Z,101857.63
2023-08-24T03:00:47.839Z,101848.78
2023-08-24T03:03:51.805Z,101844.13
2023-08-24T03:06:55.430Z,101838.00
2023-08-24T03:09:59.072Z,101830.59
2023-08-24T03:13:02.698Z,101830.72
2023-08-24T03:16:08.877Z,101826.34
2023-08-24T03:19:13.340Z,101826.06
2023-08-24T03:22:17.034Z,101821.91
2023-08-24T03:25:20.795Z,101830.66
2023-08-24T03:28:24.397Z,101837.13
2023-08-24T03:31:30.211Z,101837.41
2023-08-24T03:34:33.849Z,101823.13
2023-08-24T03:37:39.797Z,101828.97
2023-08-24T03:40:43.858Z,101820.25
2023-08-24T03:43:47.520Z,101817.69
2023-08-24T03:46:52.728Z,101831.34
2023-08-24T03:49:56.704Z,101839.06
2023-08-24T03:53:00.334Z,101843.31
2023-08-24T03:56:04.712Z,101844.88
2023-08-24T03:59:08.321Z,101847.81
2023-08-24T04:02:13.426Z,101852.00
2023-08-24T04:05:17.016Z,101849.72
2023-08-24T04:08:20.690Z,101858.59
2023-08-24T04:11:24.373Z,101850.91
2023-08-24T04:14:28.654Z,101850.16
2023-08-24T04:17:33.771Z,101855.25
2023-08-24T04:20:37.514Z,101840.38
2023-08-24T04:23:45.978Z,101841.97
2023-08-24T04:26:49.622Z,101842.03
2023-08-24T04:29:53.328Z,101847.22
2023-08-24T04:32:58.359Z,101850.16
2023-08-24T04:36:02.075Z,101851.19
2023-08-24T04:39:06.146Z,101853.16
2023-08-24T04:42:09.975Z,101862.53
2023-08-24T04:45:13.685Z,101859.13
2023-08-24T04:48:18.709Z,101857.97
2023-08-24T04:51:22.539Z,101845.34
2023-08-24T04:54:26.131Z,101848.06
2023-08-24T04:57:29.786Z,101844.34
2023-08-24T05:00:34.645Z,101829.97
2023-08-24T05:03:39.873Z,101837.03
2023-08-24T05:06:43.478Z,101837.56
2023-08-24T05:09:47.155Z,101835.84
2023-08-24T05:12:50.816Z,101835.84
2023-08-24T05:15:54.488Z,101836.66
2023-08-24T05:18:59.472Z,101846.44
2023-08-24T05:22:03.667Z,101848.91
2023-08-24T05:25:08.677Z,101850.50
2023-08-24T05:28:12.342Z,101842.59
2023-08-24T05:31:16.375Z,101853.78
2023-08-24T05:34:22.224Z,101860.59
2023-08-24T05:37:26.907Z,101858.56
2023-08-24T05:40:30.604Z,101841.38
2023-08-24T05:43:34.289Z,101838.16
2023-08-24T05:46:37.950Z,101833.53
2023-08-24T05:49:42.995Z,101828.78
2023-08-24T05:52:46.786Z,101826.63
2023-08-24T05:55:50.451Z,101817.16
2023-08-24T05:58:54.160Z,101832.22
2023-08-24T06:01:57.945Z,101838.69
2023-08-24T06:05:03.021Z,101816.63
2023-08-24T06:08:07.708Z,101812.00
2023-08-24T06:11:12.043Z,101813.88
2023-08-24T06:14:16.497Z,101811.59
2023-08-24T06:17:20.462Z,101806.72
2023-08-24T06:20:25.508Z,101804.38
2023-08-24T06:23:29.195Z,101802.41
2023-08-24T06:26:32.841Z,101790.50
2023-08-24T06:29:37.866Z,101779.94
2023-08-24T06:32:41.926Z,101788.50
2023-08-24T06:35:47.062Z,101779.31
2023-08-24T06:38:50.649Z,101774.09
2023-08-24T06:41:54.334Z,101777.28
2023-08-24T06:44:57.997Z,101769.78
2023-08-24T06:48:01.825Z,101763.94
2023-08-24T06:51:06.987Z,101763.63
2023-08-24T06:54:10.817Z,101766.97
2023-08-24T06:57:14.387Z,101763.09
2023-08-24T07:00:22.877Z,101766.38
2023-08-24T07:03:29.069Z,101760.63
2023-08-24T07:06:36.946Z,101757.56
2023-08-24T07:09:40.571Z,101753.47
2023-08-24T07:12:46.053Z,101749.56
2023-08-24T07:15:50.826Z,101755.28
2023-08-24T07:18:54.608Z,101740.41
2023-08-24T07:21:59.631Z,101731.09
2023-08-24T07:25:06.217Z,101727.28
2023-08-24T07:28:10.646Z,101718.06
2023-08-24T07:31:14.765Z,101718.44
2023-08-24T07:34:18.497Z,101723.53
2023-08-24T07:37:23.558Z,101720.47
2023-08-24T07:40:28.336Z,101725.25
2023-08-24T07:43:32.061Z,101718.75
2023-08-24T07:46:35.998Z,101718.66
2023-08-24T07:49:44.368Z,101706.69
2023-08-24T07:52:49.891Z,101704.81
2023-08-24T07:55:55.039Z,101701.09
2023-08-24T07:58:58.724Z,101700.56
2023-08-24T08:02:02.459Z,101686.88
2023-08-24T08:05:08.422Z,101690.44
2023-08-24T08:08:14.245Z,101692.44
2023-08-24T08:11:17.938Z,101691.38
2023-08-24T08:14:22.577Z,101683.03
2023-08-24T08:17:26.707Z,101684.59
2023-08-24T08:20:30.707Z,101680.25
2023-08-24T08:23:35.777Z,101676.72
2023-08-24T08:26:39.416Z,101683.88
2023-08-24T08:29:43.959Z,101676.59
2023-08-24T08:32:47.834Z,101678.84
2023-08-24T08:35:51.537Z,101688.03
2023-08-24T08:38:56.530Z,101694.81
2023-08-24T08:42:00.292Z,101690.22
2023-08-24T08:45:10.634Z,101680.09
2023-08-24T08:48:14.528Z,101681.09
2023-08-24T08:51:20.785Z,101693.81
2023-08-24T08:54:25.930Z,101694.59
2023-08-24T09:00:38.111Z,101685.47
2023-08-24T09:03:42.839Z,101681.16
2023-08-24T09:06:46.758Z,101674.50
2023-08-24T09:09:51.986Z,101676.25
2023-08-24T09:12:55.814Z,101680.47
2023-08-24T09:16:07.593Z,101684.28
2023-08-24T09:19:14.618Z,101668.25
2023-08-24T09:22:18.565Z,101658.00
2023-08-24T09:25:23.610Z,101645.13
2023-08-24T09:28:27.309Z,101643.59
2023-08-24T09:31:38.900Z,101634.81
2023-08-24T09:34:44.274Z,101636.38
2023-08-24T09:37:47.919Z,101633.19
2023-08-24T09:40:55.937Z,101618.97
2023-08-24T09:44:06.420Z,101624.09
2023-08-24T09:47:13.156Z,101622.59
2023-08-24T09:50:16.802Z,101611.53
2023-08-24T09:53:23.425Z,101601.03
2023-08-24T09:56:31.066Z,101593.38
2023-08-24T09:59:37.591Z,101593.63
2023-08-24T10:02:54.599Z,101571.28
2023-08-24T10:06:08.017Z,101579.81
2023-08-24T10:09:31.244Z,101581.78
2023-08-24T10:12:53.276Z,101576.84
2023-08-24T10:15:58.367Z,101569.81
2023-08-24T10:19:04.752Z,101567.03
2023-08-24T10:22:10.229Z,101553.38
2023-08-24T10:25:15.339Z,101557.13
2023-08-24T10:28:22.910Z,101563.97
2023-08-24T10:31:27.165Z,101551.09
2023-08-24T10:34:30.959Z,101538.75
2023-08-24T10:37:35.420Z,101536.59
2023-08-24T10:40:45.112Z,101523.25
2023-08-24T10:43:52.730Z,101527.78
2023-08-24T10:47:20.424Z,101516.22
2023-08-24T10:50:25.215Z,101514.09
2023-08-24T10:53:42.709Z,101502.94
2023-08-24T10:56:58.139Z,101510.25
2023-08-24T11:00:07.950Z,101505.72
2023-08-24T11:03:13.108Z,101509.94
2023-08-24T11:06:24.158Z,101505.22
2023-08-24T11:09:28.785Z,101499.06
2023-08-24T11:13:10.741Z,101491.66
2023-08-24T11:16:42.788Z,101478.44
2023-08-24T11:19:52.562Z,101484.00
2023-08-24T11:22:58.714Z,101464.47
2023-08-24T11:26:03.133Z,101460.25
2023-08-24T11:29:08.198Z,101456.53
2023-08-24T11:32:13.627Z,101450.88
2023-08-24T11:35:17.432Z,101454.94
2023-08-24T11:38:23.307Z,101446.34
2023-08-24T11:41:27.955Z,101435.88
2023-08-24T11:44:32.521Z,101430.84
2023-08-24T11:47:37.604Z,101431.63
2023-08-24T11:50:41.332Z,101422.66
2023-08-24T11:53:48.067Z,101418.44
2023-08-24T11:56:51.793Z,101412.75
2023-08-24T11:59:56.090Z,101412.56
2023-08-24T12:03:02.063Z,101410.53
2023-08-24T12:06:13.927Z,101404.84
2023-08-24T12:09:18.133Z,101400.13
2023-08-24T12:12:24.828Z,101405.84
2023-08-24T12:15:31.446Z,101393.25
2023-08-24T12:18:49.138Z,101382.28
2023-08-24T12:21:53.416Z,101364.13
2023-08-24T12:24:57.114Z,101366.94
2023-08-24T12:28:14.702Z,101365.69
2023-08-24T12:31:20.440Z,101369.19
2023-08-24T12:34:25.622Z,101373.31
2023-08-24T12:37:29.262Z,101361.97
2023-08-24T12:40:34.025Z,101357.72
2023-08-24T12:43:40.296Z,101354.34
2023-08-24T12:46:44.662Z,101353.06
2023-08-24T12:49:51.827Z,101344.25
2023-08-24T12:52:57.535Z,101352.06
2023-08-24T12:56:01.342Z,101346.22
2023-08-24T12:59:05.027Z,101338.34
2023-08-24T13:02:08.767Z,101325.03
2023-08-24T13:05:14.188Z,101335.06
2023-08-24T13:08:17.958Z,101333.34
2023-08-24T13:11:21.717Z,101325.53
2023-08-24T13:14:25.520Z,101318.03
2023-08-24T13:17:29.224Z,101322.97
2023-08-24T13:20:34.342Z,101313.31
2023-08-24T13:23:38.148Z,101300.09
2023-08-24T13:26:42.088Z,101300.09
2023-08-24T13:29:45.819Z,101290.91
2023-08-24T13:32:50.072Z,101291.72
2023-08-24T13:35:55.462Z,101292.31
2023-08-24T13:38:59.103Z,101287.94
2023-08-24T13:42:03.946Z,101275.66
2023-08-24T13:45:09.204Z,101277.38
2023-08-24T13:48:12.906Z,101279.75
2023-08-24T13:51:19.012Z,101275.47
2023-08-24T13:54:22.773Z,101280.94
2023-08-24T13:57:26.520Z,101278.38
2023-08-24T14:00:30.147Z,101269.19
2023-08-24T14:03:34.006Z,101270.22
2023-08-24T14:06:39.418Z,101257.06
2023-08-24T14:09:55.161Z,101241.91
2023-08-24T14:13:06.688Z,101236.72
2023-08-24T14:16:10.375Z,101238.66
2023-08-24T14:19:14.342Z,101246.91
2023-08-24T14:22:19.426Z,101249.19
2023-08-24T14:25:23.068Z,101246.78
2023-08-24T14:28:26.822Z,101239.72
2023-08-24T14:31:32.156Z,101242.44
2023-08-24T14:34:37.395Z,101238.06
2023-08-24T14:37:42.443Z,101239.22
2023-08-24T14:40:46.208Z,101240.91
2023-08-24T14:43:50.250Z,101236.78
2023-08-24T14:46:54.190Z,101233.13
2023-08-24T14:49:57.871Z,101227.81
2023-08-24T14:53:03.221Z,101226.63
2023-08-24T14:56:06.930Z,101224.97
2023-08-24T14:59:10.832Z,101235.00
2023-08-24T15:02:14.466Z,101229.88
2023-08-24T15:05:19.638Z,101230.03
2023-08-24T15:08:26.157Z,101224.50
2023-08-24T15:11:30.159Z,101224.75
2023-08-24T15:14:34.290Z,101212.00
2023-08-24T15:17:38.452Z,101210.75
2023-08-24T15:20:44.305Z,101210.41
2023-08-24T15:23:49.490Z,101212.41
2023-08-24T15:26:53.184Z,101212.19
2023-08-24T15:29:56.850Z,101202.19
2023-08-24T15:33:00.473Z,101209.31
2023-08-24T15:36:04.729Z,101211.88
2023-08-24T15:39:09.775Z,101205.34
2023-08-24T15:42:13.490Z,101200.41
2023-08-24T15:45:30.673Z,101199.44
2023-08-24T15:48:34.704Z,101190.75
2023-08-24T15:51:40.468Z,101194.66
2023-08-24T15:54:45.912Z,101186.31
2023-08-24T15:57:49.868Z,101186.66
2023-08-24T16:00:54.332Z,101181.72
2023-08-24T16:03:58.141Z,101168.97
2023-08-24T16:07:01.962Z,101161.06
2023-08-24T16:10:08.327Z,101161.66
2023-08-24T16:13:12.115Z,101165.34
2023-08-24T16:16:15.918Z,101147.97
2023-08-24T16:19:19.583Z,101143.88
2023-08-24T16:22:23.219Z,101143.03
2023-08-24T16:25:28.329Z,101128.59
2023-08-24T16:28:32.014Z,101125.75
2023-08-24T16:31:36.809Z,101130.25
2023-08-24T16:34:41.417Z,101122.63
2023-08-24T16:37:45.153Z,101132.78
2023-08-24T16:40:50.210Z,101126.84
2023-08-24T16:43:53.886Z,101120.03
2023-08-24T16:46:57.571Z,101111.97
2023-08-24T16:50:01.395Z,101112.09
2023-08-24T16:53:05.734Z,101102.91
2023-08-24T16:56:10.807Z,101091.03
2023-08-24T16:59:14.486Z,101092.69
2023-08-24T17:02:18.397Z,101085.47
2023-08-24T17:05:22.553Z,101078.69
2023-08-24T17:08:26.222Z,101068.25
2023-08-24T17:11:31.246Z,101067.16
2023-08-24T17:14:35.014Z,101057.97
2023-08-24T17:17:38.706Z,101048.50
2023-08-24T17:20:42.487Z,101043.84
2023-08-24T17:23:46.146Z,101035.91
2023-08-24T17:26:51.349Z,101033.34
2023-08-24T17:29:55.142Z,101029.94
2023-08-24T17:32:59.927Z,101029.03
2023-08-24T17:36:04.905Z,101030.00
2023-08-24T17:39:09.040Z,101026.16
2023-08-24T17:42:14.333Z,101031.31
2023-08-24T17:45:20.118Z,101028.91
2023-08-24T17:48:23.899Z,101034.28
2023-08-24T17:51:30.129Z,101032.56
2023-08-24T17:54:33.942Z,101029.47
2023-08-24T17:57:39.102Z,101026.03
2023-08-24T18:00:42.794Z,101020.63
2023-08-24T18:03:46.612Z,101019.19
2023-08-24T18:06:50.320Z,101011.44
2023-08-24T18:09:53.957Z,101023.97
2023-08-24T18:12:59.921Z,101015.34
2023-08-24T18:16:03.948Z,101012.09
2023-08-24T18:19:07.627Z,101021.94
2023-08-24T18:22:11.477Z,101011.50
2023-08-24T18:25:15.219Z,101012.47
2023-08-24T18:28:20.366Z,101011.97
2023-08-24T18:31:25.458Z,101001.41
2023-08-24T18:34:29.483Z,101003.94
2023-08-24T18:37:33.889Z,100993.72
2023-08-24T18:40:42.996Z,100996.53
2023-08-24T18:43:48.096Z,100999.09
2023-08-24T18:46:52.732Z,100991.47
2023-08-24T18:49:56.596Z,100991.00
2023-08-24T18:53:00.272Z,100985.91
2023-08-24T18:56:03.957Z,100987.97
2023-08-24T18:59:09.071Z,100975.75
2023-08-24T19:02:16.252Z,100989.63
2023-08-24T19:05:20.490Z,100991.84
2023-08-24T19:08:24.489Z,100994.31
2023-08-24T19:11:28.192Z,100986.78
2023-08-24T19:14:36.827Z,100978.03
2023-08-24T19:17:40.610Z,100977.91
2023-08-24T19:20:45.141Z,100962.97
2023-08-24T19:23:49.084Z,100949.88
2023-08-24T19:26:53.053Z,100947.31
2023-08-24T19:29:59.026Z,100943.28
2023-08-24T19:33:02.699Z,100940.88
2023-08-24T19:36:07.492Z,100938.00
2023-08-24T19:39:11.053Z,100944.44
2023-08-24T19:42:14.803Z,100932.91
2023-08-24T19:45:26.003Z,100924.41
2023-08-24T19:48:31.573Z,100910.56
2023-08-24T19:51:35.369Z,100931.63
2023-08-24T19:54:39.668Z,100905.00
2023-08-24T19:57:43.271Z,100907.81
2023-08-24T20:00:48.250Z,100901.88
2023-08-24T20:03:51.926Z,100912.56
2023-08-24T20:06:56.052Z,100912.81
2023-08-24T20:09:59.585Z,100911.38
2023-08-24T20:13:03.238Z,100915.16
2023-08-24T20:16:09.336Z,100907.28
2023-08-24T20:19:15.521Z,100906.53
2023-08-24T20:22:19.366Z,100898.28
2023-08-24T20:25:24.169Z,100895.38
2023-08-24T20:28:32.060Z,100907.28
2023-08-24T20:31:38.078Z,100905.72
2023-08-24T20:34:41.826Z,100899.75
2023-08-24T20:37:45.950Z,100893.44
2023-08-24T20:40:50.116Z,100889.88
2023-08-24T20:43:53.801Z,100897.44
2023-08-24T20:46:58.907Z,100895.97
2023-08-24T20:50:02.600Z,100894.25
2023-08-24T20:53:08.173Z,100884.75
2023-08-24T20:56:13.402Z,100886.94
2023-08-24T20:59:18.383Z,100875.03
2023-08-24T21:02:24.139Z,100868.59
2023-08-24T21:05:27.885Z,100870.69
2023-08-24T21:08:31.563Z,100879.78
2023-08-24T21:11:36.342Z,100879.41
2023-08-24T21:14:40.041Z,100876.84
2023-08-24T21:17:45.023Z,100877.69
2023-08-24T21:20:48.694Z,100878.75
2023-08-24T21:23:53.118Z,100878.16
2023-08-24T21:26:56.711Z,100878.97
2023-08-24T21:30:00.327Z,100878.97
2023-08-24T21:33:05.760Z,100878.25
2023-08-24T21:36:09.548Z,100878.56
2023-08-24T21:39:13.623Z,100886.16
2023-08-24T21:42:17.309Z,100897.03
2023-08-24T21:45:29.498Z,100888.56
2023-08-24T21:48:34.561Z,100888.88
2023-08-24T21:51:38.445Z,100884.72
2023-08-24T21:54:42.067Z,100877.72
2023-08-24T21:57:45.844Z,100884.59
2023-08-24T22:00:49.798Z,100889.06
2023-08-24T22:03:54.865Z,100891.00
2023-08-24T22:06:58.502Z,100892.91
2023-08-24T22:10:02.466Z,100892.06
2023-08-24T22:13:06.390Z,100880.47
2023-08-24T22:16:10.105Z,100891.31
2023-08-24T22:19:26.154Z,100883.78
2023-08-24T22:22:31.129Z,100882.19
2023-08-24T22:25:35.027Z,100877.72
2023-08-24T22:28:38.618Z,100872.22
2023-08-24T22:31:42.538Z,100867.56
2023-08-24T22:34:47.750Z,100873.53
2023-08-24T22:37:51.710Z,100884.28
2023-08-24T22:40:55.523Z,100878.34
2023-08-24T22:43:59.139Z,100879.66
2023-08-24T22:47:02.890Z,100877.19
2023-08-24T22:50:09.786Z,100881.78
2023-08-24T22:53:14.261Z,100883.88
2023-08-24T22:56:18.100Z,100891.13
2023-08-24T22:59:21.812Z,100883.25
2023-08-24T23:02:26.243Z,100874.75
2023-08-24T23:05:31.365Z,100876.47
2023-08-24T23:08:35.035Z,100873.03
2023-08-24T23:11:39.084Z,100871.56
2023-08-24T23:14:42.678Z,100862.47
2023-08-24T23:17:46.325Z,100857.84
2023-08-24T23:20:52.004Z,100861.03
2023-08-24T23:23:55.747Z,100856.09
2023-08-24T23:26:59.555Z,100857.03
2023-08-24T23:30:03.401Z,100875.78
2023-08-24T23:33:08.438Z,100869.19
2023-08-24T23:36:13.666Z,100876.72
2023-08-24T23:39:17.904Z,100874.81
2023-08-24T23:42:22.931Z,100877.56
2023-08-24T23:45:26.882Z,100878.22
2023-08-24T23:48:30.573Z,100885.13
2023-08-24T23:51:36.624Z,100876.91
2023-08-24T23:54:40.268Z,100874.03
2023-08-24T23:57:43.952Z,100863.16
